createdAt,value
2018-08-17T00:00:22.873Z,2.10
2018-08-17T00:02:52.220Z,1.82
2018-08-17T00:05:20.742Z,1.82
2018-08-17T00:07:49.641Z,2.70
2018-08-17T00:10:18.076Z,2.72
2018-08-17T00:12:46.485Z,2.60
2018-08-17T00:15:14.960Z,2.62
2018-08-17T00:17:43.377Z,2.20
2018-08-17T00:20:11.846Z,2.90
2018-08-17T00:22:40.261Z,2.72
2018-08-17T00:25:08.837Z,2.65
2018-08-17T00:27:37.251Z,2.58
2018-08-17T00:30:06.468Z,2.20
2018-08-17T00:32:35.020Z,2.35
2018-08-17T00:35:03.524Z,2.55
2018-08-17T00:37:32.228Z,2.60
2018-08-17T00:40:00.689Z,2.40
2018-08-17T00:42:29.258Z,2.67
2018-08-17T00:44:57.703Z,2.55
2018-08-17T00:47:26.152Z,2.85
2018-08-17T00:49:54.631Z,2.67
2018-08-17T00:52:23.241Z,2.50
2018-08-17T00:54:51.666Z,2.95
2018-08-17T00:57:20.151Z,2.45
2018-08-17T00:59:48.556Z,2.37
2018-08-17T01:02:17.056Z,2.17
2018-08-17T01:04:45.464Z,2.30
2018-08-17T01:07:13.901Z,2.00
2018-08-17T01:09:42.415Z,2.40
2018-08-17T01:12:10.887Z,2.35
2018-08-17T01:14:39.304Z,2.55
2018-08-17T01:17:07.781Z,2.55
2018-08-17T01:19:36.221Z,2.30
2018-08-17T01:22:04.707Z,2.10
2018-08-17T01:24:33.104Z,2.60
2018-08-17T01:27:01.556Z,2.50
2018-08-17T01:29:30.042Z,2.30
2018-08-17T01:31:58.488Z,2.17
2018-08-17T01:34:26.897Z,2.50
2018-08-17T01:36:55.480Z,2.62
2018-08-17T01:39:23.887Z,2.12
2018-08-17T01:41:52.361Z,2.72
2018-08-17T01:44:20.760Z,2.55
2018-08-17T01:46:49.203Z,2.37
2018-08-17T01:49:17.628Z,2.15
2018-08-17T01:51:46.114Z,2.47
2018-08-17T01:54:14.512Z,2.47
2018-08-17T01:56:42.964Z,2.17
2018-08-17T01:59:11.468Z,2.47
2018-08-17T02:01:39.889Z,2.30
2018-08-17T02:04:08.470Z,2.00
2018-08-17T02:06:36.901Z,2.37
2018-08-17T02:09:07.997Z,1.98
2018-08-17T02:11:36.452Z,2.42
2018-08-17T02:14:04.902Z,2.25
2018-08-17T02:16:33.340Z,2.60
2018-08-17T02:19:01.749Z,2.70
2018-08-17T02:21:30.164Z,2.62
2018-08-17T02:23:58.639Z,2.72
2018-08-17T02:26:27.057Z,2.65
2018-08-17T02:28:55.477Z,2.55
2018-08-17T02:31:23.880Z,2.60
2018-08-17T02:33:52.346Z,2.27
2018-08-17T02:36:20.767Z,2.70
2018-08-17T02:38:49.306Z,2.98
2018-08-17T02:41:17.794Z,2.50
2018-08-17T02:43:46.240Z,2.85
2018-08-17T02:46:14.661Z,2.67
2018-08-17T02:48:43.080Z,2.65
2018-08-17T02:51:11.757Z,3.02
2018-08-17T02:53:39.895Z,2.52
2018-08-17T02:56:08.339Z,2.60
2018-08-17T02:58:36.490Z,2.20
2018-08-17T03:01:04.933Z,2.87
2018-08-17T03:03:33.361Z,2.27
2018-08-17T03:06:01.809Z,3.65
2018-08-17T03:08:30.260Z,2.75
2018-08-17T03:10:58.699Z,2.40
2018-08-17T03:13:26.820Z,2.00
2018-08-17T03:15:55.291Z,2.40
2018-08-17T03:18:23.817Z,2.58
2018-08-17T03:20:52.216Z,2.37
2018-08-17T03:23:20.685Z,2.30
2018-08-17T03:25:49.095Z,2.37
2018-08-17T03:28:17.533Z,2.52
2018-08-17T03:30:45.944Z,2.55
2018-08-17T03:33:14.098Z,2.45
2018-08-17T03:35:42.497Z,2.60
2018-08-17T03:38:11.016Z,2.70
2018-08-17T03:40:39.109Z,2.50
2018-08-17T03:43:07.532Z,2.52
2018-08-17T03:45:35.929Z,2.33
2018-08-17T03:48:04.421Z,2.45
2018-08-17T03:50:32.921Z,2.30
2018-08-17T03:53:01.406Z,2.30
2018-08-17T03:55:29.816Z,2.92
2018-08-17T03:57:58.267Z,2.40
2018-08-17T04:00:26.750Z,2.80
2018-08-17T04:02:55.175Z,2.33
2018-08-17T04:05:23.644Z,2.15
2018-08-17T04:07:52.061Z,2.02
2018-08-17T04:10:20.525Z,2.12
2018-08-17T04:12:49.002Z,2.98
2018-08-17T04:15:17.446Z,2.40
2018-08-17T04:17:45.546Z,2.52
2018-08-17T04:20:14.010Z,2.37
2018-08-17T04:22:42.419Z,2.37
2018-08-17T04:25:10.849Z,2.67
2018-08-17T04:27:39.280Z,2.33
2018-08-17T04:30:08.014Z,2.75
2018-08-17T04:32:36.394Z,2.65
2018-08-17T04:35:05.071Z,2.50
2018-08-17T04:37:33.472Z,2.67
2018-08-17T04:40:01.929Z,2.80
2018-08-17T04:42:30.360Z,4.85
2018-08-17T04:44:58.786Z,2.45
2018-08-17T04:47:27.256Z,2.75
2018-08-17T04:49:55.721Z,2.62
2018-08-17T04:52:24.141Z,2.80
2018-08-17T04:54:52.576Z,2.50
2018-08-17T04:57:20.964Z,2.50
2018-08-17T04:59:49.145Z,2.52
2018-08-17T05:02:17.542Z,2.05
2018-08-17T05:04:45.993Z,2.40
2018-08-17T05:07:14.391Z,2.72
2018-08-17T05:09:42.839Z,2.77
2018-08-17T05:12:11.427Z,2.52
2018-08-17T05:14:39.905Z,2.52
2018-08-17T05:17:08.407Z,2.37
2018-08-17T05:19:36.873Z,2.60
2018-08-17T05:22:05.520Z,2.20
2018-08-17T05:24:33.953Z,2.58
2018-08-17T05:27:02.468Z,2.80
2018-08-17T05:29:30.994Z,2.83
2018-08-17T05:31:59.408Z,3.08
2018-08-17T05:34:27.833Z,2.70
2018-08-17T05:36:56.280Z,2.70
2018-08-17T05:39:24.736Z,3.02
2018-08-17T05:41:53.141Z,2.77
2018-08-17T05:44:21.572Z,3.20
2018-08-17T05:46:50.026Z,2.87
2018-08-17T05:49:18.437Z,3.02
2018-08-17T05:51:46.912Z,3.02
2018-08-17T05:54:15.317Z,2.50
2018-08-17T05:56:43.817Z,3.05
2018-08-17T05:59:12.253Z,3.17
2018-08-17T06:01:40.710Z,2.83
2018-08-17T06:04:09.398Z,2.70
2018-08-17T06:06:37.868Z,2.55
2018-08-17T06:09:07.243Z,3.00
2018-08-17T06:11:35.963Z,2.77
2018-08-17T06:14:05.125Z,2.52
2018-08-17T06:16:33.551Z,2.45
2018-08-17T06:19:01.981Z,2.83
2018-08-17T06:21:30.485Z,2.40
2018-08-17T06:23:58.946Z,2.35
2018-08-17T06:26:27.418Z,2.45
2018-08-17T06:28:55.817Z,2.20
2018-08-17T06:31:24.263Z,2.10
2018-08-17T06:33:52.853Z,2.40
2018-08-17T06:36:21.319Z,2.12
2018-08-17T06:38:49.855Z,2.22
2018-08-17T06:41:18.284Z,2.20
2018-08-17T06:43:46.697Z,1.80
2018-08-17T06:46:15.191Z,2.25
2018-08-17T06:48:43.590Z,1.92
2018-08-17T06:51:13.028Z,2.00
2018-08-17T06:53:41.403Z,1.98
2018-08-17T06:56:09.876Z,2.20
2018-08-17T06:58:38.287Z,2.10
2018-08-17T07:01:06.747Z,1.60
2018-08-17T07:03:35.145Z,1.40
2018-08-17T07:06:03.642Z,1.40
2018-08-17T07:08:32.084Z,1.80
2018-08-17T07:11:00.518Z,1.90
2018-08-17T07:13:28.944Z,1.52
2018-08-17T07:15:57.404Z,1.45
2018-08-17T07:18:25.813Z,1.12
2018-08-17T07:20:54.266Z,1.50
2018-08-17T07:23:22.663Z,1.80
2018-08-17T07:25:51.126Z,1.40
2018-08-17T07:28:19.524Z,1.25
2018-08-17T07:30:47.959Z,1.50
2018-08-17T07:33:16.390Z,1.35
2018-08-17T07:35:44.883Z,1.27
2018-08-17T07:38:13.288Z,1.30
2018-08-17T07:40:41.713Z,1.27
2018-08-17T07:43:10.136Z,1.37
2018-08-17T07:45:38.652Z,1.37
2018-08-17T07:48:07.310Z,1.45
2018-08-17T07:50:35.609Z,1.20
2018-08-17T07:53:04.089Z,1.30
2018-08-17T07:55:32.516Z,1.10
2018-08-17T07:58:01.006Z,1.55
2018-08-17T08:00:29.393Z,1.50
2018-08-17T08:02:57.841Z,1.30
2018-08-17T08:05:26.261Z,1.40
2018-08-17T08:07:54.816Z,1.62
2018-08-17T08:10:23.244Z,1.52
2018-08-17T08:12:51.697Z,1.27
2018-08-17T08:15:20.126Z,1.25
2018-08-17T08:17:48.587Z,1.10
2018-08-17T08:20:32.263Z,1.40
2018-08-17T08:23:11.938Z,1.10
2018-08-17T08:25:40.836Z,1.20
2018-08-17T08:28:09.370Z,1.35
2018-08-17T08:30:37.797Z,1.12
2018-08-17T08:33:06.342Z,1.12
2018-08-17T08:35:34.788Z,1.10
2018-08-17T08:38:03.253Z,1.25
2018-08-17T08:40:31.682Z,1.20
2018-08-17T08:43:00.205Z,1.25
2018-08-17T08:45:28.623Z,1.42
2018-08-17T08:47:57.132Z,1.32
2018-08-17T08:50:25.604Z,1.20
2018-08-17T08:52:54.164Z,1.20
2018-08-17T08:55:22.629Z,1.30
2018-08-17T08:57:51.100Z,1.52
2018-08-17T09:00:19.530Z,1.22
2018-08-17T09:02:47.972Z,1.25
2018-08-17T09:05:16.377Z,1.00
2018-08-17T09:07:44.806Z,1.17
2018-08-17T09:10:13.238Z,1.05
2018-08-17T09:12:41.688Z,1.10
2018-08-17T09:15:11.721Z,1.25
2018-08-17T09:17:41.166Z,1.02
2018-08-17T09:20:11.875Z,1.67
2018-08-17T09:22:40.481Z,1.00
2018-08-17T09:25:08.898Z,1.30
2018-08-17T09:27:37.385Z,1.30
2018-08-17T09:30:08.479Z,1.15
2018-08-17T09:32:37.157Z,1.07
2018-08-17T09:35:05.727Z,1.32
2018-08-17T09:37:34.133Z,1.30
2018-08-17T09:40:02.587Z,1.00
2018-08-17T09:42:31.018Z,1.00
2018-08-17T09:44:59.458Z,1.40
2018-08-17T09:47:27.984Z,1.25
2018-08-17T09:49:56.418Z,1.47
2018-08-17T09:52:24.873Z,1.30
2018-08-17T09:54:53.321Z,1.10
2018-08-17T09:57:21.717Z,1.10
2018-08-17T09:59:50.297Z,1.00
2018-08-17T10:02:24.024Z,1.35
2018-08-17T10:04:57.701Z,1.40
2018-08-17T10:07:31.400Z,1.10
2018-08-17T10:10:05.215Z,1.20
2018-08-17T10:12:33.680Z,1.30
2018-08-17T10:15:02.113Z,1.17
2018-08-17T10:17:30.509Z,0.82
2018-08-17T10:19:58.938Z,1.47
2018-08-17T10:22:27.448Z,1.07
2018-08-17T10:25:00.942Z,1.25
2018-08-17T10:27:29.368Z,1.20
2018-08-17T10:29:57.809Z,0.93
2018-08-17T10:32:26.217Z,1.07
2018-08-17T10:34:54.672Z,1.00
2018-08-17T10:37:23.084Z,1.20
2018-08-17T10:39:51.544Z,1.30
2018-08-17T10:42:19.934Z,1.20
2018-08-17T10:44:48.390Z,1.00
2018-08-17T10:47:16.836Z,1.12
2018-08-17T10:49:45.289Z,1.72
2018-08-17T10:52:13.721Z,1.20
2018-08-17T10:54:42.346Z,1.40
2018-08-17T10:57:10.780Z,1.20
2018-08-17T10:59:39.225Z,1.10
2018-08-17T11:02:07.760Z,1.55
2018-08-17T11:04:36.196Z,1.20
2018-08-17T11:07:04.640Z,1.30
2018-08-17T11:09:33.147Z,1.10
2018-08-17T11:12:01.580Z,1.10
2018-08-17T11:14:30.062Z,1.10
2018-08-17T11:16:58.540Z,1.12
2018-08-17T11:19:27.581Z,1.05
2018-08-17T11:21:56.005Z,1.20
2018-08-17T11:24:24.448Z,1.00
2018-08-17T11:26:52.851Z,1.12
2018-08-17T11:29:21.340Z,1.10
2018-08-17T11:31:52.352Z,1.07
2018-08-17T11:34:20.771Z,1.10
2018-08-17T11:36:49.212Z,1.15
2018-08-17T11:39:17.636Z,1.10
2018-08-17T11:41:46.193Z,1.25
2018-08-17T11:44:15.962Z,1.20
2018-08-17T11:46:44.270Z,1.10
2018-08-17T11:49:12.857Z,1.00
2018-08-17T11:51:41.817Z,1.25
2018-08-17T11:54:11.851Z,1.30
2018-08-17T11:56:40.733Z,1.20
2018-08-17T11:59:09.162Z,1.05
2018-08-17T12:01:37.640Z,1.17
2018-08-17T12:04:06.101Z,0.80
2018-08-17T12:06:34.536Z,1.17
2018-08-17T12:09:03.036Z,1.02
2018-08-17T12:11:31.477Z,1.00
2018-08-17T12:13:59.877Z,1.00
2018-08-17T12:16:28.317Z,1.10
2018-08-17T12:18:56.915Z,0.80
2018-08-17T12:21:25.361Z,1.00
2018-08-17T12:23:53.756Z,0.85
2018-08-17T12:26:22.256Z,0.80
2018-08-17T12:28:50.676Z,0.80
2018-08-17T12:31:19.177Z,0.90
2018-08-17T12:33:47.665Z,0.70
2018-08-17T12:36:16.093Z,0.93
2018-08-17T12:38:44.504Z,1.10
2018-08-17T12:41:12.950Z,0.78
2018-08-17T12:43:41.353Z,1.00
2018-08-17T12:46:09.798Z,0.98
2018-08-17T12:48:38.193Z,1.00
2018-08-17T12:51:07.564Z,1.10
2018-08-17T12:53:36.017Z,1.00
2018-08-17T12:56:04.508Z,1.05
2018-08-17T12:58:32.901Z,0.90
2018-08-17T13:01:01.332Z,0.93
2018-08-17T13:03:29.722Z,1.70
2018-08-17T13:05:57.871Z,0.80
2018-08-17T13:08:26.300Z,1.15
2018-08-17T13:10:58.648Z,0.90
2018-08-17T13:13:27.106Z,0.95
2018-08-17T13:16:00.929Z,1.15
2018-08-17T13:18:30.066Z,1.17
2018-08-17T13:20:58.489Z,1.00
2018-08-17T13:23:26.936Z,1.00
2018-08-17T13:25:55.349Z,0.90
2018-08-17T13:28:23.799Z,0.80
2018-08-17T13:30:52.196Z,1.00
2018-08-17T13:33:20.657Z,1.10
2018-08-17T13:35:49.089Z,0.85
2018-08-17T13:38:17.557Z,1.27
2018-08-17T13:40:45.961Z,1.10
2018-08-17T13:43:14.392Z,1.05
2018-08-17T13:45:42.893Z,0.93
2018-08-17T13:48:11.344Z,1.07
2018-08-17T13:50:40.093Z,0.90
2018-08-17T13:53:08.571Z,1.07
2018-08-17T13:55:36.974Z,1.02
2018-08-17T13:58:05.593Z,1.05
2018-08-17T14:00:34.021Z,0.98
2018-08-17T14:03:02.520Z,1.10
2018-08-17T14:05:30.929Z,1.47
2018-08-17T14:07:59.394Z,1.20
2018-08-17T14:10:27.797Z,1.20
2018-08-17T14:12:56.224Z,1.20
2018-08-17T14:15:24.645Z,2.20
2018-08-17T14:17:53.077Z,0.95
2018-08-17T14:20:21.508Z,1.20
2018-08-17T14:22:49.962Z,1.27
2018-08-17T14:25:18.381Z,1.07
2018-08-17T14:27:46.869Z,0.90
2018-08-17T14:30:17.688Z,1.27
2018-08-17T14:32:46.144Z,1.10
2018-08-17T14:35:15.011Z,0.90
2018-08-17T14:37:43.725Z,1.20
2018-08-17T14:40:11.835Z,1.05
2018-08-17T14:42:40.616Z,1.30
2018-08-17T14:45:09.885Z,1.10
2018-08-17T14:47:38.488Z,1.20
2018-08-17T14:50:09.025Z,1.30
2018-08-17T14:52:37.314Z,1.30
2018-08-17T14:55:05.908Z,0.95
2018-08-17T14:57:34.458Z,1.20
2018-08-17T15:00:02.949Z,1.00
2018-08-17T15:02:31.444Z,1.10
2018-08-17T15:04:59.851Z,1.00
2018-08-17T15:07:28.290Z,1.40
2018-08-17T15:09:56.729Z,1.10
2018-08-17T15:12:25.127Z,0.90
2018-08-17T15:14:53.569Z,1.27
2018-08-17T15:17:22.027Z,0.93
2018-08-17T15:19:50.530Z,1.05
2018-08-17T15:22:18.961Z,1.32
2018-08-17T15:24:47.410Z,1.12
2018-08-17T15:27:15.858Z,1.15
2018-08-17T15:29:44.325Z,1.40
2018-08-17T15:32:12.744Z,1.12
2018-08-17T15:34:41.408Z,1.02
2018-08-17T15:37:09.804Z,1.12
2018-08-17T15:39:38.265Z,1.20
2018-08-17T15:42:06.741Z,1.12
2018-08-17T15:44:35.172Z,1.20
2018-08-17T15:47:03.657Z,1.02
2018-08-17T15:49:32.893Z,1.30
2018-08-17T15:52:03.038Z,1.02
2018-08-17T15:54:31.609Z,1.17
2018-08-17T15:57:00.244Z,1.00
2018-08-17T15:59:28.485Z,1.40
2018-08-17T16:01:56.901Z,1.30
2018-08-17T16:04:25.523Z,1.12
2018-08-17T16:06:53.973Z,1.22
2018-08-17T16:09:22.444Z,1.10
2018-08-17T16:11:50.897Z,1.10
2018-08-17T16:14:19.388Z,0.95
2018-08-17T16:16:47.788Z,1.05
2018-08-17T16:19:16.403Z,1.25
2018-08-17T16:21:44.852Z,1.05
2018-08-17T16:24:13.353Z,1.10
2018-08-17T16:26:41.849Z,1.20
2018-08-17T16:29:10.289Z,1.27
2018-08-17T16:31:40.886Z,1.10
2018-08-17T16:34:09.927Z,3.75
2018-08-17T16:36:40.361Z,1.27
2018-08-17T16:39:15.753Z,0.90
2018-08-17T16:41:44.280Z,1.20
2018-08-17T16:44:13.442Z,0.90
2018-08-17T16:46:43.443Z,1.10
2018-08-17T16:49:11.941Z,0.90
2018-08-17T16:51:40.492Z,1.20
2018-08-17T16:54:09.021Z,1.20
2018-08-17T16:56:37.644Z,1.00
2018-08-17T16:59:06.710Z,1.15
2018-08-17T17:01:35.133Z,1.10
2018-08-17T17:04:03.600Z,1.30
2018-08-17T17:06:32.187Z,0.70
2018-08-17T17:09:02.856Z,0.95
2018-08-17T17:11:31.381Z,0.93
2018-08-17T17:13:59.834Z,1.10
2018-08-17T17:16:34.536Z,1.10
2018-08-17T17:19:03.345Z,1.30
2018-08-17T17:21:31.797Z,1.20
2018-08-17T17:24:00.494Z,1.02
2018-08-17T17:26:28.976Z,0.90
2018-08-17T17:28:57.399Z,1.20
2018-08-17T17:31:25.878Z,1.37
2018-08-17T17:33:54.027Z,0.90
2018-08-17T17:36:22.494Z,1.45
2018-08-17T17:38:50.907Z,1.20
2018-08-17T17:41:19.350Z,1.20
2018-08-17T17:43:47.740Z,1.10
2018-08-17T17:46:16.217Z,1.00
2018-08-17T17:48:44.631Z,0.90
2018-08-17T17:51:15.355Z,1.22
2018-08-17T17:53:43.898Z,0.90
2018-08-17T17:56:12.361Z,1.52
2018-08-17T17:58:40.782Z,1.07
2018-08-17T18:01:10.300Z,1.30
2018-08-17T18:03:42.735Z,1.32
2018-08-17T18:06:11.205Z,1.20
2018-08-17T18:08:39.645Z,1.20
2018-08-17T18:11:08.082Z,1.10
2018-08-17T18:13:36.505Z,1.20
2018-08-17T18:16:04.986Z,1.00
2018-08-17T18:18:33.393Z,1.30
2018-08-17T18:21:01.900Z,1.40
2018-08-17T18:23:30.381Z,1.40
2018-08-17T18:25:58.816Z,1.30
2018-08-17T18:28:27.237Z,1.27
2018-08-17T18:30:55.776Z,1.77
2018-08-17T18:33:24.145Z,1.98
2018-08-17T18:35:52.620Z,4.45
2018-08-17T18:38:21.065Z,6.90
2018-08-17T18:40:49.616Z,8.88
2018-08-17T18:43:18.037Z,14.28
2018-08-17T18:45:46.509Z,11.20
2018-08-17T18:48:14.975Z,8.53
2018-08-17T18:50:43.469Z,5.97
2018-08-17T18:53:42.924Z,4.47
2018-08-17T18:56:11.377Z,3.10
2018-08-17T18:58:39.804Z,2.60
2018-08-17T19:01:08.334Z,2.60
2018-08-17T19:03:36.741Z,2.75
2018-08-17T19:06:05.165Z,2.85
2018-08-17T19:08:33.656Z,3.00
2018-08-17T19:11:02.112Z,3.35
2018-08-17T19:13:30.825Z,3.37
2018-08-17T19:15:59.541Z,3.20
2018-08-17T19:18:32.865Z,3.67
2018-08-17T19:21:06.869Z,3.42
2018-08-17T19:23:35.726Z,4.10
2018-08-17T19:26:04.314Z,3.02
2018-08-17T19:28:32.853Z,3.12
2018-08-17T19:31:01.314Z,2.33
2018-08-17T19:33:29.815Z,2.62
2018-08-17T19:35:58.289Z,1.95
2018-08-17T19:38:26.762Z,2.30
2018-08-17T19:40:55.192Z,2.12
2018-08-17T19:43:23.719Z,2.35
2018-08-17T19:45:52.208Z,2.42
2018-08-17T19:48:20.696Z,2.70
2018-08-17T19:50:49.189Z,3.10
2018-08-17T19:53:17.661Z,2.80
2018-08-17T19:55:46.096Z,2.90
2018-08-17T19:58:14.674Z,2.80
2018-08-17T20:00:43.281Z,2.67
2018-08-17T20:03:11.716Z,2.90
2018-08-17T20:05:39.820Z,3.20
2018-08-17T20:08:08.260Z,3.30
2018-08-17T20:10:36.717Z,2.62
2018-08-17T20:13:05.212Z,2.85
2018-08-17T20:15:33.608Z,2.98
2018-08-17T20:18:02.124Z,2.92
2018-08-17T20:20:30.533Z,3.20
2018-08-17T20:23:00.758Z,2.75
2018-08-17T20:25:29.353Z,3.98
2018-08-17T20:27:57.819Z,4.08
2018-08-17T20:30:26.298Z,4.60
2018-08-17T20:32:54.703Z,3.30
2018-08-17T20:35:23.201Z,3.25
2018-08-17T20:37:53.076Z,3.55
2018-08-17T20:40:21.748Z,3.65
2018-08-17T20:42:50.403Z,3.58
2018-08-17T20:45:19.153Z,3.75
2018-08-17T20:47:47.281Z,4.05
2018-08-17T20:50:18.510Z,3.75
2018-08-17T20:52:55.902Z,3.00
2018-08-17T20:55:24.372Z,3.42
2018-08-17T20:57:54.163Z,3.17
2018-08-17T21:00:23.948Z,3.40
2018-08-17T21:02:52.311Z,2.98
2018-08-17T21:05:20.831Z,2.58
2018-08-17T21:07:49.592Z,3.00
2018-08-17T21:10:18.306Z,3.15
2018-08-17T21:12:47.373Z,3.02
2018-08-17T21:15:16.202Z,3.20
2018-08-17T21:17:44.723Z,3.27
2018-08-17T21:20:13.244Z,2.42
2018-08-17T21:22:41.643Z,3.12
2018-08-17T21:25:10.152Z,2.80
2018-08-17T21:27:38.596Z,2.62
2018-08-17T21:30:07.650Z,2.27
2018-08-17T21:32:36.959Z,2.77
2018-08-17T21:35:06.241Z,2.80
2018-08-17T21:37:34.682Z,2.87
2018-08-17T21:40:03.175Z,2.62
2018-08-17T21:42:31.682Z,2.67
2018-08-17T21:45:00.101Z,2.77
2018-08-17T21:47:28.533Z,2.47
2018-08-17T21:50:05.964Z,2.45
2018-08-17T21:52:34.452Z,2.67
2018-08-17T21:55:02.855Z,2.67
2018-08-17T21:57:31.317Z,2.27
2018-08-17T21:59:59.716Z,1.90
2018-08-17T22:02:28.217Z,2.20
2018-08-17T22:04:56.665Z,2.47
2018-08-17T22:07:25.376Z,2.35
2018-08-17T22:09:54.280Z,2.27
2018-08-17T22:12:22.781Z,2.35
2018-08-17T22:14:51.157Z,1.90
2018-08-17T22:17:33.037Z,2.00
2018-08-17T22:20:01.880Z,2.20
2018-08-17T22:22:30.396Z,2.05
2018-08-17T22:24:59.646Z,2.15
2018-08-17T22:27:29.068Z,2.67
2018-08-17T22:29:58.487Z,2.55
2018-08-17T22:32:26.934Z,2.60
2018-08-17T22:34:55.721Z,2.17
2018-08-17T22:37:24.177Z,2.37
2018-08-17T22:39:52.604Z,2.35
2018-08-17T22:42:22.473Z,1.92
2018-08-17T22:44:51.212Z,2.15
2018-08-17T22:47:25.201Z,2.37
2018-08-17T22:49:55.894Z,2.47
2018-08-17T22:52:24.381Z,2.02
2018-08-17T22:54:55.640Z,2.02
2018-08-17T22:57:24.743Z,1.90
2018-08-17T23:00:12.089Z,2.22
2018-08-17T23:02:41.776Z,2.00
2018-08-17T23:05:12.777Z,2.37
2018-08-17T23:07:41.394Z,2.65
2018-08-17T23:10:14.595Z,2.17
2018-08-17T23:12:43.881Z,2.35
2018-08-17T23:15:12.833Z,2.40
2018-08-17T23:17:43.956Z,2.02
2018-08-17T23:20:12.365Z,2.40
2018-08-17T23:22:46.542Z,2.60
2018-08-17T23:25:15.165Z,2.60
2018-08-17T23:27:43.609Z,2.67
2018-08-17T23:30:12.336Z,2.17
2018-08-17T23:32:40.878Z,2.40
2018-08-17T23:35:09.493Z,2.40
2018-08-17T23:37:38.248Z,2.50
2018-08-17T23:40:07.889Z,2.35
2018-08-17T23:42:36.424Z,2.33
2018-08-17T23:45:06.245Z,2.30
2018-08-17T23:47:34.922Z,2.05
2018-08-17T23:50:03.520Z,1.92
2018-08-17T23:52:32.008Z,1.85
2018-08-17T23:55:00.485Z,2.05
2018-08-17T23:57:28.951Z,1.80
2018-08-17T23:59:58.237Z,2.17
